sensor_id;sensor_type;location;lat;lon;timestamp;pressure;altitude;pressure_sealevel;temperature
24201;BMP280;2801;50.972;7.856;2023-01-09T00:00:57;95525.72;;;7.86
24201;BMP280;2801;50.972;7.856;2023-01-09T00:03:24;95515.03;;;7.86
24201;BMP280;2801;50.972;7.856;2023-01-09T00:05:51;95526.19;;;7.92
24201;BMP280;2801;50.972;7.856;2023-01-09T00:08:18;95518.41;;;7.83
24201;BMP280;2801;50.972;7.856;2023-01-09T00:10:48;95515.00;;;7.83
24201;BMP280;2801;50.972;7.856;2023-01-09T00:13:15;95524.56;;;7.87
24201;BMP280;2801;50.972;7.856;2023-01-09T00:15:43;95517.72;;;7.86
24201;BMP280;2801;50.972;7.856;2023-01-09T00:18:10;95517.38;;;7.88
24201;BMP280;2801;50.972;7.856;2023-01-09T00:20:37;95513.16;;;7.87
24201;BMP280;2801;50.972;7.856;2023-01-09T00:23:04;95516.59;;;7.87
24201;BMP280;2801;50.972;7.856;2023-01-09T00:25:31;95512.81;;;7.88
24201;BMP280;2801;50.972;7.856;2023-01-09T00:27:59;95514.75;;;7.91
24201;BMP280;2801;50.972;7.856;2023-01-09T00:30:26;95517.41;;;7.91
24201;BMP280;2801;50.972;7.856;2023-01-09T00:32:54;95521.22;;;7.90
24201;BMP280;2801;50.972;7.856;2023-01-09T00:35:24;95523.81;;;7.87
24201;BMP280;2801;50.972;7.856;2023-01-09T00:37:51;95519.47;;;7.79
24201;BMP280;2801;50.972;7.856;2023-01-09T00:40:18;95528.94;;;7.76
24201;BMP280;2801;50.972;7.856;2023-01-09T00:42:52;95532.31;;;7.73
24201;BMP280;2801;50.972;7.856;2023-01-09T00:45:23;95526.50;;;7.68
24201;BMP280;2801;50.972;7.856;2023-01-09T00:48:06;95519.81;;;7.58
24201;BMP280;2801;50.972;7.856;2023-01-09T00:50:35;95530.91;;;7.60
24201;BMP280;2801;50.972;7.856;2023-01-09T00:53:16;95530.06;;;7.56
24201;BMP280;2801;50.972;7.856;2023-01-09T00:55:44;95536.50;;;7.55
24201;BMP280;2801;50.972;7.856;2023-01-09T00:58:11;95536.00;;;7.49
24201;BMP280;2801;50.972;7.856;2023-01-09T01:00:38;95534.88;;;7.50
24201;BMP280;2801;50.972;7.856;2023-01-09T01:03:05;95534.72;;;7.43
24201;BMP280;2801;50.972;7.856;2023-01-09T01:05:32;95532.75;;;7.40
24201;BMP280;2801;50.972;7.856;2023-01-09T01:08:18;95529.59;;;7.35
24201;BMP280;2801;50.972;7.856;2023-01-09T01:10:47;95525.22;;;7.27
24201;BMP280;2801;50.972;7.856;2023-01-09T01:13:14;95521.38;;;7.24
24201;BMP280;2801;50.972;7.856;2023-01-09T01:15:43;95539.69;;;7.26
24201;BMP280;2801;50.972;7.856;2023-01-09T01:18:11;95533.84;;;7.20
24201;BMP280;2801;50.972;7.856;2023-01-09T01:20:43;95537.91;;;7.14
24201;BMP280;2801;50.972;7.856;2023-01-09T01:23:11;95537.13;;;7.14
24201;BMP280;2801;50.972;7.856;2023-01-09T01:25:41;95535.16;;;7.11
24201;BMP280;2801;50.972;7.856;2023-01-09T01:28:08;95542.81;;;7.12
24201;BMP280;2801;50.972;7.856;2023-01-09T01:30:41;95547.63;;;7.07
24201;BMP280;2801;50.972;7.856;2023-01-09T01:33:10;95534.25;;;7.03
24201;BMP280;2801;50.972;7.856;2023-01-09T01:35:37;95528.91;;;7.03
24201;BMP280;2801;50.972;7.856;2023-01-09T01:38:04;95535.78;;;7.04
24201;BMP280;2801;50.972;7.856;2023-01-09T01:40:31;95535.00;;;7.04
24201;BMP280;2801;50.972;7.856;2023-01-09T01:42:58;95542.63;;;7.05
24201;BMP280;2801;50.972;7.856;2023-01-09T01:45:28;95537.31;;;7.05
24201;BMP280;2801;50.972;7.856;2023-01-09T01:48:03;95536.19;;;7.06
24201;BMP280;2801;50.972;7.856;2023-01-09T01:53:34;95546.00;;;7.02
24201;BMP280;2801;50.972;7.856;2023-01-09T01:56:09;95543.66;;;7.01
24201;BMP280;2801;50.972;7.856;2023-01-09T01:58:54;95540.25;;;7.00
24201;BMP280;2801;50.972;7.856;2023-01-09T02:01:24;95545.25;;;7.02
24201;BMP280;2801;50.972;7.856;2023-01-09T02:03:56;95536.81;;;7.00
24201;BMP280;2801;50.972;7.856;2023-01-09T02:06:24;95539.47;;;7.00
24201;BMP280;2801;50.972;7.856;2023-01-09T02:08:53;95531.47;;;7.00
24201;BMP280;2801;50.972;7.856;2023-01-09T02:11:20;95528.06;;;6.99
24201;BMP280;2801;50.972;7.856;2023-01-09T02:13:48;95524.03;;;6.90
24201;BMP280;2801;50.972;7.856;2023-01-09T02:22:05;95533.56;;;6.91
24201;BMP280;2801;50.972;7.856;2023-01-09T02:25:11;95527.03;;;6.88
24201;BMP280;2801;50.972;7.856;2023-01-09T02:28:24;95525.06;;;6.85
24201;BMP280;2801;50.972;7.856;2023-01-09T02:34:16;95527.28;;;6.83
24201;BMP280;2801;50.972;7.856;2023-01-09T02:37:11;95534.59;;;6.86
24201;BMP280;2801;50.972;7.856;2023-01-09T02:39:52;95537.59;;;6.85
24201;BMP280;2801;50.972;7.856;2023-01-09T02:42:23;95538.72;;;6.84
24201;BMP280;2801;50.972;7.856;2023-01-09T02:44:51;95542.16;;;6.84
24201;BMP280;2801;50.972;7.856;2023-01-09T02:50:00;95549.72;;;6.82
24201;BMP280;2801;50.972;7.856;2023-01-09T03:01:06;95544.72;;;6.81
24201;BMP280;2801;50.972;7.856;2023-01-09T03:07:21;95543.09;;;6.76
24201;BMP280;2801;50.972;7.856;2023-01-09T03:09:59;95544.72;;;6.81
24201;BMP280;2801;50.972;7.856;2023-01-09T03:12:32;95545.06;;;6.79
24201;BMP280;2801;50.972;7.856;2023-01-09T03:15:01;95550.72;;;6.78
24201;BMP280;2801;50.972;7.856;2023-01-09T03:17:39;95561.72;;;6.76
24201;BMP280;2801;50.972;7.856;2023-01-09T03:20:11;95570.84;;;6.75
24201;BMP280;2801;50.972;7.856;2023-01-09T03:22:46;95583.03;;;6.76
24201;BMP280;2801;50.972;7.856;2023-01-09T03:25:18;95586.81;;;6.75
24201;BMP280;2801;50.972;7.856;2023-01-09T03:27:45;95589.41;;;6.72
24201;BMP280;2801;50.972;7.856;2023-01-09T03:30:12;95590.50;;;6.71
24201;BMP280;2801;50.972;7.856;2023-01-09T03:32:38;95590.50;;;6.71
24201;BMP280;2801;50.972;7.856;2023-01-09T03:35:05;95583.22;;;6.68
24201;BMP280;2801;50.972;7.856;2023-01-09T03:37:33;95596.25;;;6.73
24201;BMP280;2801;50.972;7.856;2023-01-09T03:40:00;95600.13;;;6.75
24201;BMP280;2801;50.972;7.856;2023-01-09T03:42:27;95596.25;;;6.73
24201;BMP280;2801;50.972;7.856;2023-01-09T03:44:54;95598.13;;;6.72
24201;BMP280;2801;50.972;7.856;2023-01-09T03:47:20;95601.94;;;6.71
24201;BMP280;2801;50.972;7.856;2023-01-09T03:49:47;95606.47;;;6.71
24201;BMP280;2801;50.972;7.856;2023-01-09T03:52:14;95614.44;;;6.71
24201;BMP280;2801;50.972;7.856;2023-01-09T03:54:41;95615.16;;;6.68
24201;BMP280;2801;50.972;7.856;2023-01-09T03:57:08;95617.72;;;6.64
24201;BMP280;2801;50.972;7.856;2023-01-09T03:59:35;95629.66;;;6.70
24201;BMP280;2801;50.972;7.856;2023-01-09T04:02:02;95627.75;;;6.71
24201;BMP280;2801;50.972;7.856;2023-01-09T04:04:29;95642.31;;;6.73
24201;BMP280;2801;50.972;7.856;2023-01-09T04:06:56;95640.31;;;6.70
24201;BMP280;2801;50.972;7.856;2023-01-09T04:09:23;95643.66;;;6.67
24201;BMP280;2801;50.972;7.856;2023-01-09T04:11:50;95653.97;;;6.69
24201;BMP280;2801;50.972;7.856;2023-01-09T04:14:17;95648.91;;;6.64
24201;BMP280;2801;50.972;7.856;2023-01-09T04:16:43;95645.53;;;6.67
24201;BMP280;2801;50.972;7.856;2023-01-09T04:19:10;95653.19;;;6.68
24201;BMP280;2801;50.972;7.856;2023-01-09T04:21:37;95647.44;;;6.66
24201;BMP280;2801;50.972;7.856;2023-01-09T04:24:04;95645.78;;;6.62
24201;BMP280;2801;50.972;7.856;2023-01-09T04:26:31;95648.91;;;6.64
24201;BMP280;2801;50.972;7.856;2023-01-09T04:28:58;95657.97;;;6.63
24201;BMP280;2801;50.972;7.856;2023-01-09T04:31:26;95661.78;;;6.62
24201;BMP280;2801;50.972;7.856;2023-01-09T04:33:52;95655.31;;;6.63
24201;BMP280;2801;50.972;7.856;2023-01-09T04:36:19;95654.78;;;6.57
24201;BMP280;2801;50.972;7.856;2023-01-09T04:38:46;95665.09;;;6.59
24201;BMP280;2801;50.972;7.856;2023-01-09T04:41:13;95664.16;;;6.51
24201;BMP280;2801;50.972;7.856;2023-01-09T04:44:00;95659.59;;;6.52
24201;BMP280;2801;50.972;7.856;2023-01-09T04:46:26;95666.72;;;6.48
24201;BMP280;2801;50.972;7.856;2023-01-09T04:48:53;95672.94;;;6.40
24201;BMP280;2801;50.972;7.856;2023-01-09T04:51:20;95674.06;;;6.39
24201;BMP280;2801;50.972;7.856;2023-01-09T04:53:47;95678.41;;;6.31
24201;BMP280;2801;50.972;7.856;2023-01-09T04:56:14;95679.78;;;6.25
24201;BMP280;2801;50.972;7.856;2023-01-09T04:58:41;95681.03;;;6.16
24201;BMP280;2801;50.972;7.856;2023-01-09T05:01:07;95688.69;;;6.17
24201;BMP280;2801;50.972;7.856;2023-01-09T05:03:34;95683.28;;;6.02
24201;BMP280;2801;50.972;7.856;2023-01-09T05:06:01;95694.69;;;6.02
24201;BMP280;2801;50.972;7.856;2023-01-09T05:08:28;95691.03;;;5.95
24201;BMP280;2801;50.972;7.856;2023-01-09T05:10:55;95694.38;;;5.92
24201;BMP280;2801;50.972;7.856;2023-01-09T05:13:21;95696.94;;;5.88
24201;BMP280;2801;50.972;7.856;2023-01-09T05:15:48;95695.81;;;5.77
24201;BMP280;2801;50.972;7.856;2023-01-09T05:18:15;95694.38;;;5.68
24201;BMP280;2801;50.972;7.856;2023-01-09T05:20:42;95703.56;;;5.58
24201;BMP280;2801;50.972;7.856;2023-01-09T05:23:09;95706.66;;;5.48
24201;BMP280;2801;50.972;7.856;2023-01-09T05:25:35;95716.88;;;5.34
24201;BMP280;2801;50.972;7.856;2023-01-09T05:28:02;95717.75;;;5.26
24201;BMP280;2801;50.972;7.856;2023-01-09T05:30:29;95717.84;;;5.18
24201;BMP280;2801;50.972;7.856;2023-01-09T05:32:56;95711.06;;;5.08
24201;BMP280;2801;50.972;7.856;2023-01-09T05:35:23;95725.31;;;5.04
24201;BMP280;2801;50.972;7.856;2023-01-09T05:37:49;95730.84;;;4.99
24201;BMP280;2801;50.972;7.856;2023-01-09T05:40:16;95728.75;;;4.92
24201;BMP280;2801;50.972;7.856;2023-01-09T05:42:45;95731.16;;;4.85
24201;BMP280;2801;50.972;7.856;2023-01-09T05:45:11;95740.88;;;4.81
24201;BMP280;2801;50.972;7.856;2023-01-09T05:47:39;95742.28;;;4.79
24201;BMP280;2801;50.972;7.856;2023-01-09T05:50:06;95735.91;;;4.80
24201;BMP280;2801;50.972;7.856;2023-01-09T05:52:33;95740.88;;;4.81
24201;BMP280;2801;50.972;7.856;2023-01-09T05:55:00;95739.13;;;4.85
24201;BMP280;2801;50.972;7.856;2023-01-09T05:57:26;95736.56;;;4.89
24201;BMP280;2801;50.972;7.856;2023-01-09T05:59:54;95740.03;;;5.01
24201;BMP280;2801;50.972;7.856;2023-01-09T06:02:21;95735.63;;;5.05
24201;BMP280;2801;50.972;7.856;2023-01-09T06:04:48;95729.00;;;5.11
24201;BMP280;2801;50.972;7.856;2023-01-09T06:07:14;95731.22;;;5.09
24201;BMP280;2801;50.972;7.856;2023-01-09T06:09:47;95741.19;;;5.24
24201;BMP280;2801;50.972;7.856;2023-01-09T06:12:14;95729.47;;;5.25
24201;BMP280;2801;50.972;7.856;2023-01-09T06:14:40;95745.75;;;5.36
24201;BMP280;2801;50.972;7.856;2023-01-09T06:17:07;95742.78;;;5.37
24201;BMP280;2801;50.972;7.856;2023-01-09T06:19:34;95745.97;;;5.43
24201;BMP280;2801;50.972;7.856;2023-01-09T06:22:01;95744.00;;;5.40
24201;BMP280;2801;50.972;7.856;2023-01-09T06:24:28;95747.22;;;5.45
24201;BMP280;2801;50.972;7.856;2023-01-09T06:26:55;95750.75;;;5.49
24201;BMP280;2801;50.972;7.856;2023-01-09T06:29:21;95752.72;;;5.52
24201;BMP280;2801;50.972;7.856;2023-01-09T06:31:48;95756.31;;;5.56
24201;BMP280;2801;50.972;7.856;2023-01-09T06:34:15;95755.50;;;5.56
24201;BMP280;2801;50.972;7.856;2023-01-09T06:36:42;95759.84;;;5.60
24201;BMP280;2801;50.972;7.856;2023-01-09T06:39:09;95761.72;;;5.60
24201;BMP280;2801;50.972;7.856;2023-01-09T06:41:35;95757.50;;;5.59
24201;BMP280;2801;50.972;7.856;2023-01-09T06:44:03;95758.41;;;5.63
24201;BMP280;2801;50.972;7.856;2023-01-09T06:46:29;95763.81;;;5.66
24201;BMP280;2801;50.972;7.856;2023-01-09T06:48:56;95768.25;;;5.74
24201;BMP280;2801;50.972;7.856;2023-01-09T06:51:23;95761.63;;;5.68
24201;BMP280;2801;50.972;7.856;2023-01-09T06:53:50;95778.44;;;5.72
24201;BMP280;2801;50.972;7.856;2023-01-09T06:56:17;95774.69;;;5.73
24201;BMP280;2801;50.972;7.856;2023-01-09T06:58:45;95767.81;;;5.72
24201;BMP280;2801;50.972;7.856;2023-01-09T07:01:12;95770.47;;;5.72
24201;BMP280;2801;50.972;7.856;2023-01-09T07:03:39;95766.38;;;5.63
24201;BMP280;2801;50.972;7.856;2023-01-09T07:06:06;95777.22;;;5.70
24201;BMP280;2801;50.972;7.856;2023-01-09T07:08:33;95770.66;;;5.67
24201;BMP280;2801;50.972;7.856;2023-01-09T07:11:00;95773.31;;;5.67
24201;BMP280;2801;50.972;7.856;2023-01-09T07:13:27;95769.25;;;5.70
24201;BMP280;2801;50.972;7.856;2023-01-09T07:15:53;95780.00;;;5.73
24201;BMP280;2801;50.972;7.856;2023-01-09T07:18:20;95781.44;;;5.71
24201;BMP280;2801;50.972;7.856;2023-01-09T07:20:47;95783.63;;;5.69
24201;BMP280;2801;50.972;7.856;2023-01-09T07:23:15;95782.22;;;5.71
24201;BMP280;2801;50.972;7.856;2023-01-09T07:25:42;95794.41;;;5.72
24201;BMP280;2801;50.972;7.856;2023-01-09T07:28:09;95792.94;;;5.75
24201;BMP280;2801;50.972;7.856;2023-01-09T07:30:36;95793.41;;;5.77
24201;BMP280;2801;50.972;7.856;2023-01-09T07:33:03;95792.94;;;5.75
24201;BMP280;2801;50.972;7.856;2023-01-09T07:35:29;95786.53;;;5.76
24201;BMP280;2801;50.972;7.856;2023-01-09T07:37:56;95805.78;;;5.73
24201;BMP280;2801;50.972;7.856;2023-01-09T07:40:23;95798.94;;;5.72
24201;BMP280;2801;50.972;7.856;2023-01-09T07:42:53;95795.28;;;5.76
24201;BMP280;2801;50.972;7.856;2023-01-09T07:45:20;95796.41;;;5.75
24201;BMP280;2801;50.972;7.856;2023-01-09T07:47:47;95804.16;;;5.80
24201;BMP280;2801;50.972;7.856;2023-01-09T07:50:14;95804.03;;;5.77
24201;BMP280;2801;50.972;7.856;2023-01-09T07:52:44;95809.78;;;5.79
24201;BMP280;2801;50.972;7.856;2023-01-09T07:55:12;95808.25;;;5.78
24201;BMP280;2801;50.972;7.856;2023-01-09T07:57:42;95809.25;;;5.85
24201;BMP280;2801;50.972;7.856;2023-01-09T08:00:09;95802.47;;;5.76
24201;BMP280;2801;50.972;7.856;2023-01-09T08:02:36;95811.50;;;5.83
24201;BMP280;2801;50.972;7.856;2023-01-09T08:05:05;95814.72;;;5.89
24201;BMP280;2801;50.972;7.856;2023-01-09T08:07:32;95807.38;;;5.86
24201;BMP280;2801;50.972;7.856;2023-01-09T08:09:58;95822.56;;;5.85
24201;BMP280;2801;50.972;7.856;2023-01-09T08:12:25;95811.03;;;5.81
24201;BMP280;2801;50.972;7.856;2023-01-09T08:14:53;95813.69;;;5.81
24201;BMP280;2801;50.972;7.856;2023-01-09T08:17:20;95809.00;;;5.78
24201;BMP280;2801;50.972;7.856;2023-01-09T08:19:47;95811.00;;;5.69
24201;BMP280;2801;50.972;7.856;2023-01-09T08:22:13;95812.03;;;5.77
24201;BMP280;2801;50.972;7.856;2023-01-09T08:24:40;95817.91;;;5.82
24201;BMP280;2801;50.972;7.856;2023-01-09T08:27:07;95819.25;;;5.88
24201;BMP280;2801;50.972;7.856;2023-01-09T08:29:34;95822.00;;;5.92
24201;BMP280;2801;50.972;7.856;2023-01-09T08:32:00;95803.50;;;5.95
24201;BMP280;2801;50.972;7.856;2023-01-09T08:34:27;95836.31;;;6.11
24201;BMP280;2801;50.972;7.856;2023-01-09T08:36:54;95825.66;;;6.11
24201;BMP280;2801;50.972;7.856;2023-01-09T08:39:21;95830.97;;;6.11
24201;BMP280;2801;50.972;7.856;2023-01-09T08:41:48;95826.88;;;6.14
24201;BMP280;2801;50.972;7.856;2023-01-09T08:44:33;95821.91;;;6.24
24201;BMP280;2801;50.972;7.856;2023-01-09T08:47:22;95847.06;;;6.27
24201;BMP280;2801;50.972;7.856;2023-01-09T08:49:49;95838.06;;;6.31
24201;BMP280;2801;50.972;7.856;2023-01-09T08:52:16;95838.06;;;6.31
24201;BMP280;2801;50.972;7.856;2023-01-09T08:54:43;95835.75;;;6.30
24201;BMP280;2801;50.972;7.856;2023-01-09T08:57:09;95839.84;;;6.27
24201;BMP280;2801;50.972;7.856;2023-01-09T08:59:36;95834.66;;;6.19
24201;BMP280;2801;50.972;7.856;2023-01-09T09:02:03;95841.06;;;6.18
24201;BMP280;2801;50.972;7.856;2023-01-09T09:04:30;95834.53;;;6.15
24201;BMP280;2801;50.972;7.856;2023-01-09T09:06:57;95825.56;;;6.20
24201;BMP280;2801;50.972;7.856;2023-01-09T09:09:23;95829.56;;;6.26
24201;BMP280;2801;50.972;7.856;2023-01-09T09:11:51;95832.84;;;6.35
24201;BMP280;2801;50.972;7.856;2023-01-09T09:14:18;95835.75;;;6.42
24201;BMP280;2801;50.972;7.856;2023-01-09T09:17:04;95836.63;;;6.46
24201;BMP280;2801;50.972;7.856;2023-01-09T09:19:31;95832.97;;;6.50
24201;BMP280;2801;50.972;7.856;2023-01-09T09:21:58;95831.03;;;6.63
24201;BMP280;2801;50.972;7.856;2023-01-09T09:24:24;95836.88;;;6.68
24201;BMP280;2801;50.972;7.856;2023-01-09T09:26:51;95835.59;;;6.62
24201;BMP280;2801;50.972;7.856;2023-01-09T09:29:18;95834.22;;;6.68
24201;BMP280;2801;50.972;7.856;2023-01-09T09:31:45;95834.00;;;6.73
24201;BMP280;2801;50.972;7.856;2023-01-09T09:34:12;95837.66;;;6.69
24201;BMP280;2801;50.972;7.856;2023-01-09T09:36:39;95843.41;;;6.71
24201;BMP280;2801;50.972;7.856;2023-01-09T09:39:06;95846.09;;;6.71
24201;BMP280;2801;50.972;7.856;2023-01-09T09:54:05;95865.09;;;6.69
24201;BMP280;2801;50.972;7.856;2023-01-09T09:56:45;95863.16;;;6.82
24201;BMP280;2801;50.972;7.856;2023-01-09T09:59:19;95871.78;;;6.91
24201;BMP280;2801;50.972;7.856;2023-01-09T10:01:53;95865.69;;;6.90
24201;BMP280;2801;50.972;7.856;2023-01-09T10:04:24;95867.22;;;6.91
24201;BMP280;2801;50.972;7.856;2023-01-09T10:06:59;95863.56;;;6.96
24201;BMP280;2801;50.972;7.856;2023-01-09T10:12:27;95871.56;;;6.96
24201;BMP280;2801;50.972;7.856;2023-01-09T10:21:02;95869.28;;;7.10
24201;BMP280;2801;50.972;7.856;2023-01-09T10:26:50;95865.41;;;7.07
24201;BMP280;2801;50.972;7.856;2023-01-09T10:29:35;95862.41;;;7.09
24201;BMP280;2801;50.972;7.856;2023-01-09T10:32:50;95858.19;;;7.08
24201;BMP280;2801;50.972;7.856;2023-01-09T10:38:34;95850.72;;;7.13
24201;BMP280;2801;50.972;7.856;2023-01-09T10:43:46;95835.00;;;7.08
24201;BMP280;2801;50.972;7.856;2023-01-09T10:46:26;95838.44;;;7.09
24201;BMP280;2801;50.972;7.856;2023-01-09T10:49:02;95843.53;;;7.14
24201;BMP280;2801;50.972;7.856;2023-01-09T10:54:23;95836.53;;;7.09
24201;BMP280;2801;50.972;7.856;2023-01-09T10:56:57;95843.59;;;7.17
24201;BMP280;2801;50.972;7.856;2023-01-09T10:59:26;95844.81;;;7.20
24201;BMP280;2801;50.972;7.856;2023-01-09T11:01:53;95843.53;;;7.14
24201;BMP280;2801;50.972;7.856;2023-01-09T11:04:35;95836.66;;;7.13
24201;BMP280;2801;50.972;7.856;2023-01-09T11:07:17;95859.31;;;7.07
24201;BMP280;2801;50.972;7.856;2023-01-09T11:12:34;95853.56;;;7.05
24201;BMP280;2801;50.972;7.856;2023-01-09T11:17:50;95852.97;;;7.11
24201;BMP280;2801;50.972;7.856;2023-01-09T11:20:24;95855.38;;;7.16
24201;BMP280;2801;50.972;7.856;2023-01-09T11:22:57;95866.50;;;7.18
24201;BMP280;2801;50.972;7.856;2023-01-09T11:25:27;95860.78;;;7.20
24201;BMP280;2801;50.972;7.856;2023-01-09T11:31:02;95862.16;;;7.14
24201;BMP280;2801;50.972;7.856;2023-01-09T11:33:48;95868.38;;;7.18
24201;BMP280;2801;50.972;7.856;2023-01-09T11:36:26;95861.25;;;7.22
24201;BMP280;2801;50.972;7.856;2023-01-09T11:39:27;95862.03;;;7.22
24201;BMP280;2801;50.972;7.856;2023-01-09T11:42:03;95861.50;;;7.17
24201;BMP280;2801;50.972;7.856;2023-01-09T11:44:31;95871.56;;;7.23
24201;BMP280;2801;50.972;7.856;2023-01-09T11:46:58;95867.38;;;7.22
24201;BMP280;2801;50.972;7.856;2023-01-09T11:49:30;95872.78;;;7.26
24201;BMP280;2801;50.972;7.856;2023-01-09T11:52:19;95878.22;;;7.29
24201;BMP280;2801;50.972;7.856;2023-01-09T11:55:01;95874.44;;;7.30
24201;BMP280;2801;50.972;7.856;2023-01-09T11:57:31;95873.75;;;7.33
24201;BMP280;2801;50.972;7.856;2023-01-09T12:00:04;95879.25;;;7.40
24201;BMP280;2801;50.972;7.856;2023-01-09T12:02:45;95891.16;;;7.43
24201;BMP280;2801;50.972;7.856;2023-01-09T12:05:43;95881.38;;;7.47
24201;BMP280;2801;50.972;7.856;2023-01-09T12:12:03;95894.72;;;7.62
24201;BMP280;2801;50.972;7.856;2023-01-09T12:21:04;95898.00;;;7.72
24201;BMP280;2801;50.972;7.856;2023-01-09T12:26:18;95911.09;;;7.77
24201;BMP280;2801;50.972;7.856;2023-01-09T12:41:08;95910.19;;;7.57
24201;BMP280;2801;50.972;7.856;2023-01-09T12:44:03;95908.81;;;7.63
24201;BMP280;2801;50.972;7.856;2023-01-09T12:47:03;95912.28;;;7.79
24201;BMP280;2801;50.972;7.856;2023-01-09T12:49:44;95913.94;;;7.99
24201;BMP280;2801;50.972;7.856;2023-01-09T12:52:23;95919.13;;;8.08
24201;BMP280;2801;50.972;7.856;2023-01-09T12:55:13;95919.38;;;8.03
24201;BMP280;2801;50.972;7.856;2023-01-09T12:57:46;95905.00;;;7.92
24201;BMP280;2801;50.972;7.856;2023-01-09T13:00:25;95917.13;;;7.89
24201;BMP280;2801;50.972;7.856;2023-01-09T13:03:09;95921.94;;;7.84
24201;BMP280;2801;50.972;7.856;2023-01-09T13:05:48;95922.88;;;7.76
24201;BMP280;2801;50.972;7.856;2023-01-09T13:08:30;95911.50;;;7.63
24201;BMP280;2801;50.972;7.856;2023-01-09T13:11:16;95936.63;;;7.62
24201;BMP280;2801;50.972;7.856;2023-01-09T13:14:08;95951.03;;;7.61
24201;BMP280;2801;50.972;7.856;2023-01-09T13:16:49;95948.34;;;7.45
24201;BMP280;2801;50.972;7.856;2023-01-09T13:19:38;95937.31;;;7.19
24201;BMP280;2801;50.972;7.856;2023-01-09T13:22:06;95949.56;;;7.08
24201;BMP280;2801;50.972;7.856;2023-01-09T13:33:52;95976.31;;;7.00
24201;BMP280;2801;50.972;7.856;2023-01-09T13:36:35;95984.53;;;7.07
24201;BMP280;2801;50.972;7.856;2023-01-09T13:39:04;95968.88;;;7.05
24201;BMP280;2801;50.972;7.856;2023-01-09T13:41:31;95972.19;;;7.14
24201;BMP280;2801;50.972;7.856;2023-01-09T13:46:47;95980.38;;;7.21
24201;BMP280;2801;50.972;7.856;2023-01-09T13:57:33;95985.53;;;7.14
24201;BMP280;2801;50.972;7.856;2023-01-09T14:08:10;96008.59;;;7.10
24201;BMP280;2801;50.972;7.856;2023-01-09T14:10:50;96015.69;;;7.06
24201;BMP280;2801;50.972;7.856;2023-01-09T14:13:30;96014.16;;;7.05
24201;BMP280;2801;50.972;7.856;2023-01-09T14:16:22;96016.41;;;7.03
24201;BMP280;2801;50.972;7.856;2023-01-09T14:21:56;96036.47;;;7.01
24201;BMP280;2801;50.972;7.856;2023-01-09T14:24:32;96033.81;;;7.01
24201;BMP280;2801;50.972;7.856;2023-01-09T14:38:46;96060.66;;;6.96
24201;BMP280;2801;50.972;7.856;2023-01-09T14:43:59;96085.22;;;7.01
24201;BMP280;2801;50.972;7.856;2023-01-09T14:46:33;96081.09;;;6.92
24201;BMP280;2801;50.972;7.856;2023-01-09T14:49:15;96094.50;;;6.95
24201;BMP280;2801;50.972;7.856;2023-01-09T14:51:48;96104.63;;;6.90
24201;BMP280;2801;50.972;7.856;2023-01-09T14:54:30;96108.47;;;6.80
24201;BMP280;2801;50.972;7.856;2023-01-09T14:56:58;96115.72;;;6.80
24201;BMP280;2801;50.972;7.856;2023-01-09T14:59:28;96123.25;;;6.78
24201;BMP280;2801;50.972;7.856;2023-01-09T15:01:58;96127.66;;;6.74
24201;BMP280;2801;50.972;7.856;2023-01-09T15:04:32;96128.56;;;6.78
24201;BMP280;2801;50.972;7.856;2023-01-09T15:07:02;96139.34;;;6.69
24201;BMP280;2801;50.972;7.856;2023-01-09T15:09:53;96147.97;;;6.66
24201;BMP280;2801;50.972;7.856;2023-01-09T15:12:22;96147.97;;;6.66
24201;BMP280;2801;50.972;7.856;2023-01-09T15:14:53;96149.41;;;6.64
24201;BMP280;2801;50.972;7.856;2023-01-09T15:17:27;96160.16;;;6.67
24201;BMP280;2801;50.972;7.856;2023-01-09T15:19:59;96162.84;;;6.67
24201;BMP280;2801;50.972;7.856;2023-01-09T15:22:33;96170.03;;;6.67
24201;BMP280;2801;50.972;7.856;2023-01-09T15:27:56;96166.16;;;6.64
24201;BMP280;2801;50.972;7.856;2023-01-09T15:30:33;96173.06;;;6.65
24201;BMP280;2801;50.972;7.856;2023-01-09T15:33:14;96179.13;;;6.66
24201;BMP280;2801;50.972;7.856;2023-01-09T15:35:47;96182.13;;;6.64
24201;BMP280;2801;50.972;7.856;2023-01-09T15:38:22;96182.00;;;6.61
24201;BMP280;2801;50.972;7.856;2023-01-09T15:41:07;96186.88;;;6.59
24201;BMP280;2801;50.972;7.856;2023-01-09T15:43:40;96195.50;;;6.56
24201;BMP280;2801;50.972;7.856;2023-01-09T15:46:10;96193.19;;;6.54
24201;BMP280;2801;50.972;7.856;2023-01-09T15:48:37;96188.84;;;6.50
24201;BMP280;2801;50.972;7.856;2023-01-09T15:51:07;96208.38;;;6.54
24201;BMP280;2801;50.972;7.856;2023-01-09T15:53:36;96199.72;;;6.45
24201;BMP280;2801;50.972;7.856;2023-01-09T15:58:43;96218.91;;;6.50
24201;BMP280;2801;50.972;7.856;2023-01-09T16:01:30;96228.63;;;6.46
24201;BMP280;2801;50.972;7.856;2023-01-09T16:04:09;96234.09;;;6.50
24201;BMP280;2801;50.972;7.856;2023-01-09T16:06:48;96234.94;;;6.42
24201;BMP280;2801;50.972;7.856;2023-01-09T16:09:29;96233.78;;;6.31
24201;BMP280;2801;50.972;7.856;2023-01-09T16:11:59;96238.31;;;6.30
24201;BMP280;2801;50.972;7.856;2023-01-09T16:14:37;96242.53;;;6.31
24201;BMP280;2801;50.972;7.856;2023-01-09T16:17:14;96243.84;;;6.25
24201;BMP280;2801;50.972;7.856;2023-01-09T16:19:49;96254.16;;;6.27
24201;BMP280;2801;50.972;7.856;2023-01-09T16:22:30;96257.16;;;6.25
24201;BMP280;2801;50.972;7.856;2023-01-09T16:28:18;96264.34;;;6.25
24201;BMP280;2801;50.972;7.856;2023-01-09T16:31:02;96270.91;;;6.27
24201;BMP280;2801;50.972;7.856;2023-01-09T16:33:33;96267.47;;;6.27
24201;BMP280;2801;50.972;7.856;2023-01-09T16:36:00;96274.81;;;6.30
24201;BMP280;2801;50.972;7.856;2023-01-09T16:38:30;96277.97;;;6.23
24201;BMP280;2801;50.972;7.856;2023-01-09T16:41:06;96287.22;;;6.26
24201;BMP280;2801;50.972;7.856;2023-01-09T16:43:52;96289.41;;;6.24
24201;BMP280;2801;50.972;7.856;2023-01-09T16:46:20;96294.91;;;6.19
24201;BMP280;2801;50.972;7.856;2023-01-09T16:48:47;96299.41;;;6.27
24201;BMP280;2801;50.972;7.856;2023-01-09T16:51:18;96313.16;;;6.29
24201;BMP280;2801;50.972;7.856;2023-01-09T16:53:48;96307.81;;;6.29
24201;BMP280;2801;50.972;7.856;2023-01-09T16:56:24;96320.81;;;6.30
24201;BMP280;2801;50.972;7.856;2023-01-09T16:58:52;96309.72;;;6.28
24201;BMP280;2801;50.972;7.856;2023-01-09T17:01:21;96323.94;;;6.32
24201;BMP280;2801;50.972;7.856;2023-01-09T17:03:49;96333.97;;;6.35
24201;BMP280;2801;50.972;7.856;2023-01-09T17:06:27;96339.72;;;6.37
24201;BMP280;2801;50.972;7.856;2023-01-09T17:08:55;96340.03;;;6.36
24201;BMP280;2801;50.972;7.856;2023-01-09T17:11:27;96340.81;;;6.36
24201;BMP280;2801;50.972;7.856;2023-01-09T17:14:00;96346.31;;;6.31
24201;BMP280;2801;50.972;7.856;2023-01-09T17:16:29;96351.31;;;6.33
24201;BMP280;2801;50.972;7.856;2023-01-09T17:18:55;96354.78;;;6.33
24201;BMP280;2801;50.972;7.856;2023-01-09T17:21:25;96363.56;;;6.34
24201;BMP280;2801;50.972;7.856;2023-01-09T17:23:55;96368.72;;;6.30
24201;BMP280;2801;50.972;7.856;2023-01-09T17:26:45;96374.34;;;6.29